Time;durP1;ratioP1;P1;durP2;ratioP2;P2;SDS_P1;SDS_P2;PMS_P1;PMS_P2;Temp;Humidity;BMP_temperature;BMP_pressure;BME280_temperature;BME280_humidity;BME280_pressure;Samples;Min_cycle;Max_cycle;Signal;HPM_P1;HPM_P2
2022/11/16 00:01:12;;;;;;;;;;;;;;;15.13;52.81;98498.63;4505144;31;33887;-86
2022/11/16 00:03:39;;;;;;;;;;;;;;;15.05;52.91;98496.16;4501998;31;33039;-92
2022/11/16 00:06:07;;;;;;;;;;;;;;;14.62;53.85;98497.66;4515264;31;33749;-92
2022/11/16 00:08:35;;;;;;;;;;;;;;;14.23;55.36;98486.88;4505584;31;34078;-86
2022/11/16 00:11:10;;;;;;;;;;;;;;;14.35;54.88;98484.09;4505752;31;34288;-91
2022/11/16 00:13:38;;;;;;;;;;;;;;;14.67;53.43;98485.44;4509974;31;33178;-87
2022/11/16 00:16:06;;;;;;;;;;;;;;;14.09;55.39;98487.91;4515385;31;34278;-87
2022/11/16 00:18:33;;;;;;;;;;;;;;;13.63;56.68;98485.81;4505591;31;35364;-85
2022/11/16 00:21:02;;;;;;;;;;;;;;;13.70;57.01;98483.16;4510469;31;34561;-87
2022/11/16 00:23:30;;;;;;;;;;;;;;;13.76;56.91;98478.75;4508787;31;33509;-85
2022/11/16 00:26:03;;;;;;;;;;;;;;;14.00;56.00;98474.97;4497793;31;35079;-90
2022/11/16 00:28:30;;;;;;;;;;;;;;;13.51;57.36;98478.13;4502597;31;33937;-93
2022/11/16 00:31:01;;;;;;;;;;;;;;;13.65;56.88;98470.19;4508646;31;34563;-92
2022/11/16 00:33:29;;;;;;;;;;;;;;;14.39;54.98;98469.25;4501698;31;34176;-92
2022/11/16 00:35:56;;;;;;;;;;;;;;;14.24;55.36;98467.72;4514205;31;34277;-91
2022/11/16 00:38:23;;;;;;;;;;;;;;;14.75;54.18;98468.78;4514146;31;35205;-86
2022/11/16 00:40:50;;;;;;;;;;;;;;;14.21;54.96;98462.56;4514574;31;36834;-90
2022/11/16 00:43:18;;;;;;;;;;;;;;;14.19;55.40;98456.50;4511192;31;34296;-86
2022/11/16 00:45:45;;;;;;;;;;;;;;;13.21;58.26;98468.84;4505752;31;35029;-86
2022/11/16 00:48:12;;;;;;;;;;;;;;;13.59;56.77;98460.66;4504641;31;35253;-91
2022/11/16 00:50:39;;;;;;;;;;;;;;;13.57;57.28;98457.25;4515351;31;34342;-93
2022/11/16 00:53:09;;;;;;;;;;;;;;;14.10;55.88;98450.53;4513807;31;33865;-86
2022/11/16 00:55:36;;;;;;;;;;;;;;;14.63;54.37;98439.41;4499964;31;34347;-92
2022/11/16 00:58:03;;;;;;;;;;;;;;;14.54;54.47;98433.41;4509050;31;35120;-86
2022/11/16 01:00:31;;;;;;;;;;;;;;;14.42;54.83;98433.56;4511924;31;34850;-90
2022/11/16 01:02:58;;;;;;;;;;;;;;;14.09;55.70;98434.91;4514718;31;34072;-86
2022/11/16 01:05:25;;;;;;;;;;;;;;;14.27;55.47;98428.56;4514950;31;34081;-89
2022/11/16 01:07:53;;;;;;;;;;;;;;;13.91;56.37;98427.34;4514089;31;35145;-89
2022/11/16 01:10:21;;;;;;;;;;;;;;;13.71;56.88;98423.19;4499821;31;34020;-85
2022/11/16 01:12:49;;;;;;;;;;;;;;;13.43;57.61;98427.00;4509831;31;33107;-93
2022/11/16 01:15:17;;;;;;;;;;;;;;;12.92;59.53;98430.06;4515171;31;34396;-91
2022/11/16 01:17:44;;;;;;;;;;;;;;;14.19;56.01;98425.22;4514165;31;34069;-86
2022/11/16 01:20:13;;;;;;;;;;;;;;;14.35;55.27;98414.53;4500859;31;34974;-87
2022/11/16 01:22:40;;;;;;;;;;;;;;;13.34;58.43;98412.34;4497564;31;33670;-86
2022/11/16 01:25:08;;;;;;;;;;;;;;;13.35;58.17;98403.66;4498936;31;33967;-93
2022/11/16 01:27:35;;;;;;;;;;;;;;;13.48;57.87;98400.03;4505951;31;34399;-90
2022/11/16 01:30:04;;;;;;;;;;;;;;;13.72;57.31;98400.66;4514636;31;34423;-93
2022/11/16 01:32:32;;;;;;;;;;;;;;;13.79;57.21;98397.09;4498764;31;34175;-94
2022/11/16 01:34:59;;;;;;;;;;;;;;;14.09;56.45;98394.09;4514006;31;34978;-86
2022/11/16 01:37:29;;;;;;;;;;;;;;;13.51;57.59;98386.97;4512236;31;34005;-94
2022/11/16 01:39:57;;;;;;;;;;;;;;;13.21;58.92;98387.28;4498860;31;34033;-87
2022/11/16 01:42:26;;;;;;;;;;;;;;;13.47;58.51;98377.47;4511161;31;33402;-85
2022/11/16 01:44:58;;;;;;;;;;;;;;;13.63;57.35;98384.22;4497984;31;33631;-87
2022/11/16 01:47:25;;;;;;;;;;;;;;;13.78;57.29;98377.97;4502262;31;34196;-85
2022/11/16 01:49:55;;;;;;;;;;;;;;;14.29;55.87;98374.69;4514587;31;34036;-86
2022/11/16 01:52:25;;;;;;;;;;;;;;;13.31;58.60;98365.53;4512086;31;33627;-86
2022/11/16 01:54:53;;;;;;;;;;;;;;;14.04;56.62;98366.34;4509493;31;34192;-89
2022/11/16 01:57:23;;;;;;;;;;;;;;;13.98;56.68;98369.91;4500154;31;34884;-86
2022/11/16 02:00:00;;;;;;;;;;;;;;;14.01;56.80;98359.41;4511516;31;34323;-89
2022/11/16 02:02:28;;;;;;;;;;;;;;;14.17;56.46;98356.59;4513379;31;33177;-86
2022/11/16 02:04:56;;;;;;;;;;;;;;;14.27;55.68;98361.66;4514651;31;34360;-87
2022/11/16 02:07:24;;;;;;;;;;;;;;;14.69;54.67;98348.84;4512961;31;34001;-86
2022/11/16 02:09:57;;;;;;;;;;;;;;;14.09;56.00;98346.28;4511383;31;34476;-95
2022/11/16 02:12:43;;;;;;;;;;;;;;;13.83;56.97;98349.28;4510644;31;33545;-91
2022/11/16 02:15:24;;;;;;;;;;;;;;;14.39;55.24;98349.31;4514032;31;34765;-88
2022/11/16 02:18:11;;;;;;;;;;;;;;;14.00;56.70;98349.88;4507703;31;34948;-85
2022/11/16 02:20:46;;;;;;;;;;;;;;;14.80;54.22;98335.62;4514431;31;33860;-88
2022/11/16 02:23:31;;;;;;;;;;;;;;;14.39;54.92;98338.87;4512577;31;33426;-86
2022/11/16 02:26:04;;;;;;;;;;;;;;;14.73;54.47;98323.56;4499343;31;34103;-92
2022/11/16 02:28:38;;;;;;;;;;;;;;;14.78;54.29;98330.44;4511438;31;33887;-87
2022/11/16 02:31:06;;;;;;;;;;;;;;;14.69;54.49;98322.75;4513710;31;34952;-87
2022/11/16 02:33:34;;;;;;;;;;;;;;;15.05;53.39;98316.03;4498279;31;34219;-90
2022/11/16 02:36:03;;;;;;;;;;;;;;;15.16;53.06;98313.22;4501276;31;34833;-89
2022/11/16 02:38:31;;;;;;;;;;;;;;;14.85;53.71;98310.31;4509194;31;34352;-86
2022/11/16 02:41:04;;;;;;;;;;;;;;;14.80;54.15;98309.53;4512109;31;34304;-92
2022/11/16 02:43:36;;;;;;;;;;;;;;;15.15;53.06;98302.78;4502815;31;34263;-95
2022/11/16 02:46:04;;;;;;;;;;;;;;;15.05;53.28;98302.97;4507797;31;35045;-86
2022/11/16 02:48:39;;;;;;;;;;;;;;;15.18;53.11;98303.59;4510226;31;34176;-86
2022/11/16 02:51:07;;;;;;;;;;;;;;;14.72;53.89;98298.38;4514955;31;33770;-88
2022/11/16 02:53:49;;;;;;;;;;;;;;;13.83;56.35;98310.19;4514478;31;32798;-88
2022/11/16 02:56:16;;;;;;;;;;;;;;;14.39;55.09;98308.44;4509096;31;33815;-88
2022/11/16 02:58:43;;;;;;;;;;;;;;;14.92;53.79;98296.25;4501648;31;34435;-87
2022/11/16 03:01:14;;;;;;;;;;;;;;;13.81;56.63;98299.78;4506686;31;33999;-87
2022/11/16 03:03:41;;;;;;;;;;;;;;;14.82;54.12;98292.09;4510824;31;33078;-93
2022/11/16 03:06:13;;;;;;;;;;;;;;;14.38;54.97;98291.09;4515342;31;35018;-95
2022/11/16 03:08:51;;;;;;;;;;;;;;;15.06;53.31;98286.41;4515378;31;34266;-86
2022/11/16 03:14:06;;;;;;;;;;;;;;;15.52;52.32;98284.63;4503611;31;33069;-91
2022/11/16 03:16:35;;;;;;;;;;;;;;;14.91;53.58;98283.25;4507835;31;34289;-86
2022/11/16 03:19:04;;;;;;;;;;;;;;;14.64;54.25;98288.06;4512801;31;35881;-90
2022/11/16 03:21:36;;;;;;;;;;;;;;;14.41;55.30;98284.97;4511118;31;34787;-85
2022/11/16 03:24:06;;;;;;;;;;;;;;;13.83;56.86;98284.16;4506912;31;32797;-90
2022/11/16 03:26:42;;;;;;;;;;;;;;;14.47;55.08;98275.31;4506501;31;34695;-87
2022/11/16 03:29:17;;;;;;;;;;;;;;;15.34;53.04;98264.97;4500778;31;35694;-88
2022/11/16 03:31:45;;;;;;;;;;;;;;;15.32;53.06;98269.38;4498316;31;34261;-87
2022/11/16 03:34:15;;;;;;;;;;;;;;;14.67;54.56;98266.28;4508344;31;33144;-88
2022/11/16 03:36:42;;;;;;;;;;;;;;;14.82;54.34;98259.03;4502180;31;34066;-84
2022/11/16 03:39:10;;;;;;;;;;;;;;;14.13;55.89;98261.97;4499444;31;33019;-86
2022/11/16 03:41:42;;;;;;;;;;;;;;;14.04;56.56;98255.13;4499980;31;33430;-86
2022/11/16 03:44:09;;;;;;;;;;;;;;;13.17;59.42;98258.06;4500372;31;32610;-86
2022/11/16 03:46:37;;;;;;;;;;;;;;;13.49;58.43;98258.56;4501609;31;32666;-85
2022/11/16 03:49:05;;;;;;;;;;;;;;;12.73;60.85;98256.81;4499944;31;35057;-90
2022/11/16 03:51:34;;;;;;;;;;;;;;;12.24;62.62;98250.38;4496556;31;32877;-86
2022/11/16 03:54:01;;;;;;;;;;;;;;;12.86;61.15;98255.81;4500552;31;35667;-89
2022/11/16 03:56:30;;;;;;;;;;;;;;;12.77;61.57;98246.38;4497550;31;32747;-85
2022/11/16 03:58:57;;;;;;;;;;;;;;;13.68;58.53;98242.69;4502089;31;33895;-85
2022/11/16 04:01:24;;;;;;;;;;;;;;;13.05;60.16;98252.12;4505735;31;34907;-86
2022/11/16 04:03:52;;;;;;;;;;;;;;;13.68;57.95;98255.72;4500653;31;33510;-86
2022/11/16 04:25:56;;;;;;;;;;;;;;;13.92;57.56;98218.84;4497233;31;34635;-87
2022/11/16 04:28:25;;;;;;;;;;;;;;;14.23;56.90;98219.19;4499502;31;35270;-91
2022/11/16 04:39:15;;;;;;;;;;;;;;;14.07;57.11;98204.72;4499267;31;33993;-86
2022/11/16 04:47:05;;;;;;;;;;;;;;;14.54;55.71;98193.47;4502873;31;32707;-87
2022/11/16 04:47:16;;;;;;;;;;;;;;;13.73;58.42;98199.19;4496287;31;33292;-89
2022/11/16 04:49:45;;;;;;;;;;;;;;;13.46;58.87;98205.66;4497643;31;34961;-87
2022/11/16 04:52:12;;;;;;;;;;;;;;;13.44;59.46;98200.47;4501025;31;34219;-93
2022/11/16 04:54:39;;;;;;;;;;;;;;;13.53;58.76;98202.94;4501178;31;34181;-86
2022/11/16 04:57:07;;;;;;;;;;;;;;;13.69;58.46;98194.91;4509136;31;34306;-86
2022/11/16 04:59:34;;;;;;;;;;;;;;;14.07;57.41;98195.16;4515605;31;35026;-88
2022/11/16 05:02:08;;;;;;;;;;;;;;;14.37;56.35;98190.28;4503046;31;34492;-87
2022/11/16 05:04:40;;;;;;;;;;;;;;;14.18;57.15;98188.91;4505764;31;34002;-87
2022/11/16 05:07:11;;;;;;;;;;;;;;;13.61;58.68;98197.63;4499323;31;33196;-94
2022/11/16 05:09:42;;;;;;;;;;;;;;;14.03;57.70;98185.66;4507642;31;34948;-95
2022/11/16 05:12:10;;;;;;;;;;;;;;;13.69;58.14;98185.34;4500655;31;33959;-92
2022/11/16 05:14:38;;;;;;;;;;;;;;;13.82;58.06;98181.66;4498710;31;34931;-91
2022/11/16 05:17:05;;;;;;;;;;;;;;;13.44;59.16;98195.25;4504248;31;34147;-95
2022/11/16 05:22:20;;;;;;;;;;;;;;;14.29;56.90;98189.56;4500321;31;33852;-92
2022/11/16 05:24:48;;;;;;;;;;;;;;;13.57;58.60;98195.97;4508141;31;34858;-88
2022/11/16 05:27:15;;;;;;;;;;;;;;;14.33;56.49;98175.59;4510274;31;33715;-87
2022/11/16 05:29:43;;;;;;;;;;;;;;;14.44;56.25;98175.41;4512165;31;34262;-95
2022/11/16 05:32:11;;;;;;;;;;;;;;;13.80;57.85;98175.62;4508055;31;34184;-92
2022/11/16 05:34:38;;;;;;;;;;;;;;;13.17;59.76;98180.00;4500467;31;33674;-93
2022/11/16 05:37:06;;;;;;;;;;;;;;;13.39;59.15;98189.25;4510146;31;33392;-92
2022/11/16 05:39:33;;;;;;;;;;;;;;;12.51;62.19;98173.88;4502980;31;34810;-93
2022/11/16 05:42:01;;;;;;;;;;;;;;;12.77;62.02;98175.31;4499701;31;34237;-93
2022/11/16 05:44:28;;;;;;;;;;;;;;;13.77;58.62;98169.59;4512401;31;34344;-92
2022/11/16 05:46:55;;;;;;;;;;;;;;;12.94;60.87;98165.53;4515431;31;33447;-87
2022/11/16 05:49:23;;;;;;;;;;;;;;;12.71;61.14;98162.38;4510097;31;34222;-93
2022/11/16 05:51:51;;;;;;;;;;;;;;;12.78;61.51;98161.41;4501736;31;35204;-87
2022/11/16 05:54:19;;;;;;;;;;;;;;;13.52;59.67;98156.09;4503450;31;34398;-92
2022/11/16 05:56:47;;;;;;;;;;;;;;;13.74;58.60;98159.22;4502823;31;32219;-88
2022/11/16 05:59:17;;;;;;;;;;;;;;;13.95;58.01;98164.09;4506126;31;33383;-92
2022/11/16 06:01:45;;;;;;;;;;;;;;;14.18;57.43;98158.47;4513588;31;35095;-90
2022/11/16 06:04:13;;;;;;;;;;;;;;;13.85;58.32;98155.56;4514698;31;34341;-93
2022/11/16 06:06:40;;;;;;;;;;;;;;;14.01;58.08;98144.88;4498243;31;33470;-94
2022/11/16 06:09:09;;;;;;;;;;;;;;;14.09;57.55;98148.19;4498335;31;34771;-90
2022/11/16 06:11:37;;;;;;;;;;;;;;;14.01;57.75;98150.94;4498549;31;35307;-93
2022/11/16 06:14:04;;;;;;;;;;;;;;;14.35;56.75;98151.19;4498716;31;34864;-90
2022/11/16 06:16:32;;;;;;;;;;;;;;;13.56;58.68;98156.03;4497102;31;33222;-91
2022/11/16 06:19:00;;;;;;;;;;;;;;;14.45;56.51;98149.28;4498606;31;33164;-95
2022/11/16 06:21:27;;;;;;;;;;;;;;;14.27;57.13;98150.47;4507866;31;34465;-89
2022/11/16 06:23:55;;;;;;;;;;;;;;;15.07;54.90;98141.94;4513588;31;34333;-93
2022/11/16 06:26:22;;;;;;;;;;;;;;;15.32;53.87;98149.25;4511083;31;33565;-94
2022/11/16 06:28:50;;;;;;;;;;;;;;;15.35;53.91;98151.78;4501857;31;34183;-90
2022/11/16 06:31:17;;;;;;;;;;;;;;;15.55;53.37;98144.34;4514086;31;34308;-90
2022/11/16 06:33:44;;;;;;;;;;;;;;;14.00;56.83;98144.00;4503625;31;34192;-94
2022/11/16 06:36:13;;;;;;;;;;;;;;;15.01;54.53;98146.47;4501785;31;33095;-89
2022/11/16 06:38:41;;;;;;;;;;;;;;;14.15;57.28;98142.88;4500155;31;35020;-88
2022/11/16 06:41:08;;;;;;;;;;;;;;;14.16;57.16;98139.38;4500509;31;34738;-89
2022/11/16 06:43:37;;;;;;;;;;;;;;;14.55;56.04;98131.75;4514453;31;34771;-87
2022/11/16 06:46:05;;;;;;;;;;;;;;;14.94;55.00;98134.44;4516039;31;32952;-92
2022/11/16 06:48:32;;;;;;;;;;;;;;;14.59;55.50;98128.19;4516204;31;33776;-92
2022/11/16 06:51:02;;;;;;;;;;;;;;;14.64;55.66;98125.47;4516081;31;35345;-93
2022/11/16 06:53:29;;;;;;;;;;;;;;;14.31;56.48;98125.22;4510067;31;34240;-93
2022/11/16 06:56:04;;;;;;;;;;;;;;;14.53;56.58;98117.87;4500416;31;33144;-90
2022/11/16 06:58:32;;;;;;;;;;;;;;;14.67;55.58;98120.22;4499966;31;34117;-90
2022/11/16 07:01:05;;;;;;;;;;;;;;;14.68;55.88;98122.78;4500348;31;34451;-94
2022/11/16 07:03:32;;;;;;;;;;;;;;;15.22;54.26;98119.00;4500217;31;35102;-89
2022/11/16 07:06:04;;;;;;;;;;;;;;;15.21;54.27;98112.06;4501083;31;33288;-90
2022/11/16 07:08:32;;;;;;;;;;;;;;;15.30;53.80;98115.34;4500948;31;34437;-91
2022/11/16 07:11:00;;;;;;;;;;;;;;;13.81;58.01;98114.81;4507845;31;33845;-92
2022/11/16 07:13:32;;;;;;;;;;;;;;;13.97;57.40;98111.94;4514672;31;34215;-91
2022/11/16 07:16:03;;;;;;;;;;;;;;;13.93;58.12;98112.88;4502803;31;32699;-91
2022/11/16 07:18:32;;;;;;;;;;;;;;;15.18;54.70;98112.13;4509379;31;34754;-92
2022/11/16 07:21:10;;;;;;;;;;;;;;;15.26;54.22;98104.97;4504117;31;35012;-93
2022/11/16 07:23:37;;;;;;;;;;;;;;;15.55;53.67;98105.16;4514535;31;34725;-91
2022/11/16 07:26:06;;;;;;;;;;;;;;;15.50;53.29;98104.44;4508155;31;34195;-92
2022/11/16 07:28:34;;;;;;;;;;;;;;;15.56;53.19;98101.66;4516147;31;33976;-93
2022/11/16 07:31:02;;;;;;;;;;;;;;;15.04;54.95;98100.28;4512808;31;35203;-90
2022/11/16 07:33:30;;;;;;;;;;;;;;;14.07;57.21;98108.28;4514300;31;34202;-90
2022/11/16 07:36:07;;;;;;;;;;;;;;;14.35;56.67;98103.41;4506302;31;33358;-93
2022/11/16 07:38:34;;;;;;;;;;;;;;;13.98;58.00;98101.50;4508609;31;34042;-93
2022/11/16 07:41:03;;;;;;;;;;;;;;;14.32;57.05;98100.88;4503679;31;34808;-92
2022/11/16 07:43:33;;;;;;;;;;;;;;;13.59;58.96;98103.03;4499041;31;35000;-90
2022/11/16 07:46:05;;;;;;;;;;;;;;;13.76;59.05;98092.34;4498661;31;34076;-92
2022/11/16 07:48:53;;;;;;;;;;;;;;;12.42;62.54;98095.97;4499849;31;35051;-94
2022/11/16 07:51:22;;;;;;;;;;;;;;;12.89;61.75;98097.13;4499720;31;32762;-91
2022/11/16 07:53:56;;;;;;;;;;;;;;;13.35;60.90;98086.91;4503379;31;34298;-93
2022/11/16 07:56:23;;;;;;;;;;;;;;;12.31;63.79;98098.72;4515729;31;33523;-93
2022/11/16 07:58:51;;;;;;;;;;;;;;;12.72;62.83;98091.25;4514115;31;34084;-93
2022/11/16 08:01:19;;;;;;;;;;;;;;;13.21;61.46;98078.44;4515861;31;33999;-93
2022/11/16 08:03:47;;;;;;;;;;;;;;;12.86;62.26;98084.16;4516295;31;34883;-93
2022/11/16 08:06:22;;;;;;;;;;;;;;;12.99;62.17;98085.69;4514308;31;32979;-93
2022/11/16 08:08:50;;;;;;;;;;;;;;;13.05;61.15;98083.00;4514305;31;34733;-94
2022/11/16 08:11:24;;;;;;;;;;;;;;;13.77;59.83;98079.28;4514417;31;35158;-94
2022/11/16 08:13:52;;;;;;;;;;;;;;;13.53;60.23;98075.34;4510090;31;34323;-93
2022/11/16 08:16:20;;;;;;;;;;;;;;;14.00;58.52;98080.63;4499844;31;33359;-92
2022/11/16 08:18:48;;;;;;;;;;;;;;;14.08;58.69;98084.78;4499694;31;33990;-93
2022/11/16 08:21:16;;;;;;;;;;;;;;;13.61;59.71;98086.50;4498437;31;34371;-90
2022/11/16 08:23:44;;;;;;;;;;;;;;;13.32;60.76;98086.97;4513184;31;35051;-92
2022/11/16 08:26:15;;;;;;;;;;;;;;;13.34;60.74;98084.34;4515829;31;34256;-95
2022/11/16 08:28:44;;;;;;;;;;;;;;;13.86;59.44;98078.25;4514688;31;34913;-91
2022/11/16 08:31:16;;;;;;;;;;;;;;;13.63;59.83;98076.91;4512347;31;34363;-93
2022/11/16 08:33:44;;;;;;;;;;;;;;;14.21;58.54;98076.75;4503699;31;34016;-93
2022/11/16 08:36:15;;;;;;;;;;;;;;;13.57;60.08;98063.16;4498487;31;33452;-93
2022/11/16 08:38:44;;;;;;;;;;;;;;;13.14;61.17;98072.47;4499400;31;33857;-92
2022/11/16 08:41:11;;;;;;;;;;;;;;;13.58;60.11;98062.25;4498455;31;34356;-94
2022/11/16 08:43:39;;;;;;;;;;;;;;;13.98;59.58;98070.22;4474608;31;781970;-93
2022/11/16 08:46:07;;;;;;;;;;;;;;;14.07;59.30;98072.66;4502651;31;33226;-91
2022/11/16 08:48:35;;;;;;;;;;;;;;;14.51;57.87;98068.34;4507037;31;34378;-91
2022/11/16 08:51:04;;;;;;;;;;;;;;;14.09;58.65;98070.00;4499345;31;35108;-94
2022/11/16 08:53:48;;;;;;;;;;;;;;;14.08;59.11;98073.50;4499173;31;33351;-93
2022/11/16 08:56:17;;;;;;;;;;;;;;;14.38;57.76;98066.84;4498488;31;33289;-93
2022/11/16 08:58:47;;;;;;;;;;;;;;;14.37;57.98;98067.75;4498109;31;33989;-91
2022/11/16 09:01:21;;;;;;;;;;;;;;;13.78;60.10;98070.56;4499203;31;34302;-93
2022/11/16 09:03:50;;;;;;;;;;;;;;;13.79;59.47;98061.03;4500237;31;34987;-93
2022/11/16 09:06:18;;;;;;;;;;;;;;;14.07;59.28;98057.03;4515289;31;33265;-91
2022/11/16 09:08:45;;;;;;;;;;;;;;;14.25;58.62;98054.97;4513875;31;34324;-92
2022/11/16 09:11:14;;;;;;;;;;;;;;;14.63;57.38;98054.19;4515047;31;34363;-92
2022/11/16 09:13:42;;;;;;;;;;;;;;;14.11;59.02;98050.00;4513901;31;34311;-94
2022/11/16 09:16:14;;;;;;;;;;;;;;;13.72;60.11;98047.25;4513608;31;33182;-92
2022/11/16 09:18:42;;;;;;;;;;;;;;;14.40;58.16;98043.38;4515120;31;34947;-92
2022/11/16 09:21:10;;;;;;;;;;;;;;;13.32;61.33;98041.84;4513509;31;35161;-93
2022/11/16 09:23:37;;;;;;;;;;;;;;;13.44;61.46;98039.03;4510167;31;34952;-94
2022/11/16 09:26:04;;;;;;;;;;;;;;;13.99;59.91;98045.88;4497537;31;34188;-92
2022/11/16 09:28:31;;;;;;;;;;;;;;;13.83;60.43;98047.06;4498974;31;35110;-93
2022/11/16 09:31:00;;;;;;;;;;;;;;;14.60;58.07;98047.28;4498880;31;34793;-94
2022/11/16 09:33:29;;;;;;;;;;;;;;;14.18;59.17;98042.94;4497816;31;33671;-91
2022/11/16 09:36:05;;;;;;;;;;;;;;;14.15;59.43;98054.25;4499267;31;33235;-94
2022/11/16 09:38:33;;;;;;;;;;;;;;;14.35;58.55;98048.66;4498975;31;33206;-91
2022/11/16 09:41:39;;;;;;;;;;;;;;;14.36;58.22;98046.03;4497975;31;34183;-93
2022/11/16 09:44:12;;;;;;;;;;;;;;;13.59;60.95;98040.53;4507993;31;34638;-93
2022/11/16 09:46:40;;;;;;;;;;;;;;;13.82;60.25;98032.31;4514531;31;33111;-93
2022/11/16 09:49:12;;;;;;;;;;;;;;;13.62;61.56;98030.91;4513454;31;35254;-91
2022/11/16 09:51:45;;;;;;;;;;;;;;;13.60;61.25;98031.84;4514674;31;35236;-93
2022/11/16 09:54:38;;;;;;;;;;;;;;;13.05;63.14;98022.31;4514534;31;34186;-93
2022/11/16 09:57:07;;;;;;;;;;;;;;;13.03;62.99;98018.84;4512029;31;33100;-91
2022/11/16 09:59:43;;;;;;;;;;;;;;;12.82;64.42;98017.44;4509454;31;35069;-90
2022/11/16 10:02:31;;;;;;;;;;;;;;;13.07;63.39;98008.41;4499099;31;34392;-91
2022/11/16 10:05:02;;;;;;;;;;;;;;;13.10;63.19;97999.66;4498626;31;34289;-90
2022/11/16 10:07:37;;;;;;;;;;;;;;;13.43;62.19;98006.09;4499255;31;33431;-94
2022/11/16 10:10:05;;;;;;;;;;;;;;;13.30;62.36;98004.59;4514605;31;33859;-94
2022/11/16 10:12:45;;;;;;;;;;;;;;;13.52;61.55;98002.47;4514602;31;34085;-94
2022/11/16 10:15:18;;;;;;;;;;;;;;;13.72;61.28;98002.13;4511772;31;34297;-90
2022/11/16 10:18:04;;;;;;;;;;;;;;;13.28;62.75;97998.53;4511025;31;34167;-93
2022/11/16 10:20:50;;;;;;;;;;;;;;;13.07;63.32;97992.78;4514365;31;34899;-94
2022/11/16 10:23:32;;;;;;;;;;;;;;;13.24;62.70;97989.91;4514389;31;34801;-91
2022/11/16 10:26:22;;;;;;;;;;;;;;;13.41;62.26;97989.66;4512682;31;34912;-94
2022/11/16 10:28:51;;;;;;;;;;;;;;;13.43;62.33;97987.00;4497741;31;34296;-94
2022/11/16 10:31:25;;;;;;;;;;;;;;;13.58;61.63;97986.72;4497282;31;35099;-91
2022/11/16 10:33:52;;;;;;;;;;;;;;;12.94;63.74;97973.03;4498556;31;34522;-93
2022/11/16 10:36:20;;;;;;;;;;;;;;;13.50;62.38;97968.66;4510004;31;34933;-94
2022/11/16 10:38:47;;;;;;;;;;;;;;;14.59;59.08;97967.34;4509692;31;34239;-94
2022/11/16 10:41:18;;;;;;;;;;;;;;;14.65;58.70;97955.03;4498293;31;34142;-92
2022/11/16 10:43:45;;;;;;;;;;;;;;;14.00;59.95;97955.53;4497875;31;34488;-94
2022/11/16 10:46:31;;;;;;;;;;;;;;;13.99;60.59;97951.22;4496949;31;34192;-93
2022/11/16 10:48:59;;;;;;;;;;;;;;;13.21;62.98;97952.66;4498129;31;33403;-91
2022/11/16 10:51:26;;;;;;;;;;;;;;;14.75;58.47;97939.12;4497872;31;33800;-94
2022/11/16 10:53:54;;;;;;;;;;;;;;;15.01;57.89;97935.03;4498179;31;34438;-95
2022/11/16 10:56:21;;;;;;;;;;;;;;;14.50;58.89;97930.16;4497903;31;33969;-94
2022/11/16 10:58:59;;;;;;;;;;;;;;;14.38;59.09;97933.88;4497763;31;34057;-93
2022/11/16 11:01:40;;;;;;;;;;;;;;;14.68;58.43;97923.66;4497871;31;34585;-94
2022/11/16 11:04:23;;;;;;;;;;;;;;;14.73;58.51;97919.19;4498596;31;33676;-93
2022/11/16 11:06:54;;;;;;;;;;;;;;;14.19;59.73;97924.75;4505329;31;33983;-91
2022/11/16 11:09:31;;;;;;;;;;;;;;;14.14;60.30;97924.00;4496557;31;34416;-94
2022/11/16 11:15:10;;;;;;;;;;;;;;;14.49;59.07;97924.09;4500016;31;35307;-92
2022/11/16 11:17:39;;;;;;;;;;;;;;;14.21;59.12;97922.97;4499996;31;34354;-94
2022/11/16 11:20:06;;;;;;;;;;;;;;;15.44;56.21;97920.87;4500743;31;34273;-94
2022/11/16 11:22:45;;;;;;;;;;;;;;;15.44;56.13;97918.25;4500082;31;33418;-93
2022/11/16 11:25:19;;;;;;;;;;;;;;;13.93;60.39;97912.25;4499398;31;34756;-92
2022/11/16 11:27:46;;;;;;;;;;;;;;;13.92;60.40;97905.34;4500010;31;34880;-93
2022/11/16 11:30:18;;;;;;;;;;;;;;;14.12;59.58;97903.16;4508301;31;33392;-94
2022/11/16 11:32:46;;;;;;;;;;;;;;;14.45;58.90;97892.88;4514324;31;34698;-92
2022/11/16 11:35:22;;;;;;;;;;;;;;;13.98;60.60;97890.44;4514448;31;34140;-93
2022/11/16 11:37:50;;;;;;;;;;;;;;;14.11;60.58;97889.28;4515753;31;33896;-94
2022/11/16 11:40:18;;;;;;;;;;;;;;;13.75;61.17;97893.53;4515690;31;34059;-94
2022/11/16 11:43:04;;;;;;;;;;;;;;;14.12;60.20;97883.16;4515826;31;34056;-91
2022/11/16 11:45:38;;;;;;;;;;;;;;;14.05;60.44;97889.41;4514481;31;34245;-90
2022/11/16 11:48:28;;;;;;;;;;;;;;;13.73;61.13;97886.62;4515578;31;34992;-93
2022/11/16 11:51:15;;;;;;;;;;;;;;;14.33;59.54;97881.84;4511816;31;33516;-92
2022/11/16 11:53:50;;;;;;;;;;;;;;;14.26;59.87;97879.41;4499676;31;33964;-91
2022/11/16 11:56:18;;;;;;;;;;;;;;;13.88;61.03;97883.69;4498524;31;35185;-92
2022/11/16 11:58:45;;;;;;;;;;;;;;;13.97;60.60;97883.50;4498403;31;34098;-92
2022/11/16 12:01:31;;;;;;;;;;;;;;;14.45;59.04;97872.88;4500670;31;33484;-92
2022/11/16 12:04:07;;;;;;;;;;;;;;;13.90;60.77;97871.47;4499818;31;33734;-91
2022/11/16 12:06:53;;;;;;;;;;;;;;;13.90;60.70;97873.22;4499694;31;35141;-93
2022/11/16 12:09:20;;;;;;;;;;;;;;;14.41;59.62;97865.16;4499603;31;35017;-93
2022/11/16 12:12:06;;;;;;;;;;;;;;;14.45;59.07;97859.81;4499688;31;33968;-92
2022/11/16 12:14:41;;;;;;;;;;;;;;;14.53;58.81;97865.75;4499521;31;33684;-94
2022/11/16 12:17:13;;;;;;;;;;;;;;;14.80;58.16;97864.22;4499665;31;34146;-92
2022/11/16 12:19:48;;;;;;;;;;;;;;;15.36;56.26;97868.84;4498151;31;34012;-91
2022/11/16 12:22:15;;;;;;;;;;;;;;;14.98;57.54;97862.91;4497850;31;34215;-90
2022/11/16 12:25:01;;;;;;;;;;;;;;;15.26;56.24;97860.41;4499508;31;35160;-89
2022/11/16 12:27:37;;;;;;;;;;;;;;;15.30;56.29;97859.44;4499529;31;35363;-91
2022/11/16 12:30:12;;;;;;;;;;;;;;;16.04;54.76;97854.75;4499622;31;34311;-94
2022/11/16 12:32:47;;;;;;;;;;;;;;;15.89;54.46;97852.59;4499805;31;32776;-93
2022/11/16 12:35:23;;;;;;;;;;;;;;;16.23;53.92;97844.59;4498318;31;34106;-92
2022/11/16 12:38:09;;;;;;;;;;;;;;;16.29;53.77;97836.56;4499350;31;33600;-90
2022/11/16 12:40:39;;;;;;;;;;;;;;;16.31;53.32;97842.59;4503523;31;34042;-93
2022/11/16 12:43:17;;;;;;;;;;;;;;;15.96;54.16;97841.91;4514989;31;33106;-94
2022/11/16 12:45:48;;;;;;;;;;;;;;;15.40;55.41;97843.50;4513956;31;35101;-91
2022/11/16 12:48:18;;;;;;;;;;;;;;;15.78;54.75;97832.00;4515220;31;33941;-93
2022/11/16 12:50:49;;;;;;;;;;;;;;;15.96;53.90;97836.69;4515224;31;34324;-93
2022/11/16 12:53:22;;;;;;;;;;;;;;;15.91;54.33;97838.59;4513655;31;34186;-93
2022/11/16 12:56:08;;;;;;;;;;;;;;;15.59;55.05;97831.66;4515194;31;34438;-91
2022/11/16 12:58:44;;;;;;;;;;;;;;;15.35;55.77;97835.81;4515317;31;34405;-91
2022/11/16 13:01:32;;;;;;;;;;;;;;;15.28;56.04;97844.72;4509168;31;34973;-92
2022/11/16 13:04:00;;;;;;;;;;;;;;;15.62;55.16;97834.19;4490378;31;33053;-93
2022/11/16 13:06:29;;;;;;;;;;;;;;;15.12;56.79;97844.28;4497969;31;34256;-91
2022/11/16 13:09:10;;;;;;;;;;;;;;;15.14;56.35;97846.81;4498226;31;34908;-91
2022/11/16 13:11:39;;;;;;;;;;;;;;;15.16;56.38;97839.84;4499353;31;34085;-90
2022/11/16 13:14:09;;;;;;;;;;;;;;;15.30;55.87;97840.28;4498159;31;33717;-94
2022/11/16 13:16:36;;;;;;;;;;;;;;;15.35;55.62;97845.41;4497739;31;34122;-89
2022/11/16 13:19:04;;;;;;;;;;;;;;;15.38;55.76;97837.47;4497887;31;34823;-91
2022/11/16 13:21:37;;;;;;;;;;;;;;;15.65;55.05;97835.84;4501155;31;34210;-91
2022/11/16 13:24:17;;;;;;;;;;;;;;;16.18;53.63;97830.81;4513922;31;33436;-94
2022/11/16 13:26:47;;;;;;;;;;;;;;;15.95;54.13;97834.13;4515202;31;34289;-93
2022/11/16 13:29:21;;;;;;;;;;;;;;;15.53;55.03;97824.84;4513570;31;35291;-92
2022/11/16 13:31:51;;;;;;;;;;;;;;;15.64;54.82;97818.44;4513654;31;33918;-94
2022/11/16 13:34:26;;;;;;;;;;;;;;;15.54;55.10;97821.34;4512547;31;34091;-90
2022/11/16 13:36:53;;;;;;;;;;;;;;;15.92;53.94;97827.22;4511839;31;34915;-89
2022/11/16 13:39:41;;;;;;;;;;;;;;;16.40;53.02;97826.63;4512071;31;34913;-92
2022/11/16 13:42:11;;;;;;;;;;;;;;;17.13;51.33;97822.47;4514662;31;34774;-92
2022/11/16 13:44:38;;;;;;;;;;;;;;;15.99;53.43;97817.44;4514845;31;34028;-93
2022/11/16 13:47:06;;;;;;;;;;;;;;;16.06;53.44;97824.16;4513417;31;34607;-94